sensor_id;sensor_type;location;lat;lon;timestamp;P1;durP1;ratioP1;P2;durP2;ratioP2
76423;SDS011;65257;52.104;4.268;2023-02-28T00:00:12;3.55;;;1.70;;
76423;SDS011;65257;52.104;4.268;2023-02-28T00:02:42;6.32;;;2.55;;
76423;SDS011;65257;52.104;4.268;2023-02-28T00:05:09;8.43;;;2.08;;
76423;SDS011;65257;52.104;4.268;2023-02-28T00:07:36;4.88;;;2.05;;
76423;SDS011;65257;52.104;4.268;2023-02-28T00:10:01;6.18;;;2.88;;
76423;SDS011;65257;52.104;4.268;2023-02-28T00:12:28;4.28;;;3.20;;
76423;SDS011;65257;52.104;4.268;2023-02-28T00:14:54;4.03;;;1.85;;
76423;SDS011;65257;52.104;4.268;2023-02-28T00:17:19;5.07;;;2.20;;
76423;SDS011;65257;52.104;4.268;2023-02-28T00:19:49;4.03;;;1.77;;
76423;SDS011;65257;52.104;4.268;2023-02-28T00:22:16;4.68;;;1.83;;
76423;SDS011;65257;52.104;4.268;2023-02-28T00:24:42;5.72;;;2.47;;
76423;SDS011;65257;52.104;4.268;2023-02-28T00:27:08;7.30;;;2.17;;
76423;SDS011;65257;52.104;4.268;2023-02-28T00:29:33;7.22;;;2.53;;
76423;SDS011;65257;52.104;4.268;2023-02-28T00:31:59;5.95;;;2.08;;
76423;SDS011;65257;52.104;4.268;2023-02-28T00:34:24;4.13;;;1.77;;
76423;SDS011;65257;52.104;4.268;2023-02-28T00:36:49;6.13;;;2.72;;
76423;SDS011;65257;52.104;4.268;2023-02-28T00:39:15;4.57;;;2.50;;
76423;SDS011;65257;52.104;4.268;2023-02-28T00:41:40;6.93;;;2.25;;
76423;SDS011;65257;52.104;4.268;2023-02-28T00:44:06;5.07;;;2.70;;
76423;SDS011;65257;52.104;4.268;2023-02-28T00:46:31;6.88;;;2.28;;
76423;SDS011;65257;52.104;4.268;2023-02-28T00:48:56;3.88;;;1.83;;
76423;SDS011;65257;52.104;4.268;2023-02-28T00:51:22;9.32;;;2.85;;
76423;SDS011;65257;52.104;4.268;2023-02-28T00:53:47;5.88;;;1.80;;
76423;SDS011;65257;52.104;4.268;2023-02-28T00:56:12;5.38;;;2.92;;
76423;SDS011;65257;52.104;4.268;2023-02-28T00:58:38;9.15;;;2.83;;
76423;SDS011;65257;52.104;4.268;2023-02-28T01:01:04;7.72;;;2.97;;
76423;SDS011;65257;52.104;4.268;2023-02-28T01:03:29;6.68;;;2.90;;
76423;SDS011;65257;52.104;4.268;2023-02-28T01:05:55;5.32;;;2.40;;
76423;SDS011;65257;52.104;4.268;2023-02-28T01:08:20;7.95;;;2.97;;
76423;SDS011;65257;52.104;4.268;2023-02-28T01:10:46;12.30;;;2.60;;
76423;SDS011;65257;52.104;4.268;2023-02-28T01:13:12;10.88;;;3.13;;
76423;SDS011;65257;52.104;4.268;2023-02-28T01:15:39;7.50;;;2.40;;
76423;SDS011;65257;52.104;4.268;2023-02-28T01:18:07;8.57;;;2.42;;
76423;SDS011;65257;52.104;4.268;2023-02-28T01:20:32;5.93;;;2.72;;
76423;SDS011;65257;52.104;4.268;2023-02-28T01:22:57;6.32;;;2.67;;
76423;SDS011;65257;52.104;4.268;2023-02-28T01:25:23;6.45;;;2.72;;
76423;SDS011;65257;52.104;4.268;2023-02-28T01:27:48;12.77;;;2.80;;
76423;SDS011;65257;52.104;4.268;2023-02-28T01:30:14;8.50;;;4.38;;
76423;SDS011;65257;52.104;4.268;2023-02-28T01:32:39;6.43;;;2.80;;
76423;SDS011;65257;52.104;4.268;2023-02-28T01:35:05;6.55;;;2.47;;
76423;SDS011;65257;52.104;4.268;2023-02-28T01:37:30;7.65;;;3.00;;
76423;SDS011;65257;52.104;4.268;2023-02-28T01:39:55;6.72;;;2.70;;
76423;SDS011;65257;52.104;4.268;2023-02-28T01:42:21;9.32;;;2.53;;
76423;SDS011;65257;52.104;4.268;2023-02-28T01:47:25;4.90;;;1.90;;
76423;SDS011;65257;52.104;4.268;2023-02-28T01:49:55;6.63;;;2.97;;
76423;SDS011;65257;52.104;4.268;2023-02-28T01:52:20;5.25;;;2.70;;
76423;SDS011;65257;52.104;4.268;2023-02-28T01:54:49;8.38;;;2.90;;
76423;SDS011;65257;52.104;4.268;2023-02-28T01:57:18;6.53;;;3.20;;
76423;SDS011;65257;52.104;4.268;2023-02-28T01:59:48;6.38;;;2.63;;
76423;SDS011;65257;52.104;4.268;2023-02-28T02:02:20;5.72;;;2.53;;
76423;SDS011;65257;52.104;4.268;2023-02-28T02:04:55;5.50;;;2.80;;
76423;SDS011;65257;52.104;4.268;2023-02-28T02:07:23;7.30;;;3.10;;
76423;SDS011;65257;52.104;4.268;2023-02-28T02:09:59;5.15;;;2.65;;
76423;SDS011;65257;52.104;4.268;2023-02-28T02:16:06;5.07;;;2.60;;
76423;SDS011;65257;52.104;4.268;2023-02-28T02:18:27;8.23;;;2.85;;
76423;SDS011;65257;52.104;4.268;2023-02-28T02:21:08;5.38;;;2.40;;
76423;SDS011;65257;52.104;4.268;2023-02-28T02:26:34;7.20;;;3.05;;
76423;SDS011;65257;52.104;4.268;2023-02-28T02:42:28;5.93;;;3.22;;
76423;SDS011;65257;52.104;4.268;2023-02-28T02:45:04;7.07;;;3.13;;
76423;SDS011;65257;52.104;4.268;2023-02-28T02:47:34;13.48;;;3.42;;
76423;SDS011;65257;52.104;4.268;2023-02-28T02:50:03;10.25;;;3.47;;
76423;SDS011;65257;52.104;4.268;2023-02-28T02:52:40;8.13;;;3.45;;
76423;SDS011;65257;52.104;4.268;2023-02-28T02:55:10;6.55;;;3.10;;
76423;SDS011;65257;52.104;4.268;2023-02-28T02:57:45;6.25;;;3.05;;
76423;SDS011;65257;52.104;4.268;2023-02-28T03:00:25;5.93;;;3.45;;
76423;SDS011;65257;52.104;4.268;2023-02-28T03:02:57;6.68;;;3.92;;
76423;SDS011;65257;52.104;4.268;2023-02-28T03:05:25;7.45;;;3.40;;
76423;SDS011;65257;52.104;4.268;2023-02-28T03:07:55;8.27;;;3.05;;
76423;SDS011;65257;52.104;4.268;2023-02-28T03:13:12;5.85;;;3.13;;
76423;SDS011;65257;52.104;4.268;2023-02-28T03:18:30;7.25;;;3.53;;
76423;SDS011;65257;52.104;4.268;2023-02-28T03:23:52;6.25;;;3.13;;
76423;SDS011;65257;52.104;4.268;2023-02-28T03:26:26;5.78;;;3.63;;
76423;SDS011;65257;52.104;4.268;2023-02-28T03:31:28;6.82;;;3.55;;
76423;SDS011;65257;52.104;4.268;2023-02-28T03:36:39;7.80;;;4.32;;
76423;SDS011;65257;52.104;4.268;2023-02-28T03:39:12;10.05;;;4.57;;
76423;SDS011;65257;52.104;4.268;2023-02-28T03:44:24;5.93;;;3.72;;
76423;SDS011;65257;52.104;4.268;2023-02-28T03:46:57;10.18;;;3.88;;
76423;SDS011;65257;52.104;4.268;2023-02-28T03:49:27;8.82;;;4.13;;
76423;SDS011;65257;52.104;4.268;2023-02-28T03:51:58;7.15;;;4.07;;
76423;SDS011;65257;52.104;4.268;2023-02-28T03:54:31;7.18;;;3.65;;
76423;SDS011;65257;52.104;4.268;2023-02-28T03:57:05;11.90;;;4.50;;
76423;SDS011;65257;52.104;4.268;2023-02-28T03:59:45;11.57;;;4.38;;
76423;SDS011;65257;52.104;4.268;2023-02-28T04:02:14;6.95;;;4.03;;
76423;SDS011;65257;52.104;4.268;2023-02-28T04:04:40;11.65;;;4.30;;
76423;SDS011;65257;52.104;4.268;2023-02-28T04:07:10;9.38;;;4.50;;
76423;SDS011;65257;52.104;4.268;2023-02-28T04:09:36;9.23;;;4.30;;
76423;SDS011;65257;52.104;4.268;2023-02-28T04:12:02;17.70;;;5.13;;
76423;SDS011;65257;52.104;4.268;2023-02-28T04:14:27;12.93;;;4.88;;
76423;SDS011;65257;52.104;4.268;2023-02-28T04:16:53;9.00;;;5.10;;
76423;SDS011;65257;52.104;4.268;2023-02-28T04:19:18;10.82;;;5.03;;
76423;SDS011;65257;52.104;4.268;2023-02-28T04:21:45;9.70;;;4.40;;
76423;SDS011;65257;52.104;4.268;2023-02-28T04:24:16;12.45;;;5.10;;
76423;SDS011;65257;52.104;4.268;2023-02-28T04:26:48;13.98;;;5.15;;
76423;SDS011;65257;52.104;4.268;2023-02-28T04:31:45;13.35;;;4.93;;
76423;SDS011;65257;52.104;4.268;2023-02-28T04:34:11;8.45;;;4.65;;
76423;SDS011;65257;52.104;4.268;2023-02-28T04:36:36;9.32;;;4.13;;
76423;SDS011;65257;52.104;4.268;2023-02-28T04:39:01;10.63;;;4.40;;
76423;SDS011;65257;52.104;4.268;2023-02-28T04:41:29;11.95;;;4.65;;
76423;SDS011;65257;52.104;4.268;2023-02-28T04:43:54;9.48;;;3.90;;
76423;SDS011;65257;52.104;4.268;2023-02-28T04:46:21;6.20;;;3.35;;
76423;SDS011;65257;52.104;4.268;2023-02-28T04:48:47;8.05;;;3.53;;
76423;SDS011;65257;52.104;4.268;2023-02-28T04:51:13;8.93;;;3.88;;
76423;SDS011;65257;52.104;4.268;2023-02-28T04:53:40;13.00;;;3.53;;
76423;SDS011;65257;52.104;4.268;2023-02-28T04:56:07;7.88;;;3.95;;
76423;SDS011;65257;52.104;4.268;2023-02-28T04:58:36;9.32;;;3.95;;
76423;SDS011;65257;52.104;4.268;2023-02-28T05:01:02;10.90;;;4.32;;
76423;SDS011;65257;52.104;4.268;2023-02-28T05:03:29;5.90;;;3.40;;
76423;SDS011;65257;52.104;4.268;2023-02-28T05:05:55;9.35;;;4.68;;
76423;SDS011;65257;52.104;4.268;2023-02-28T05:08:20;8.65;;;3.75;;
76423;SDS011;65257;52.104;4.268;2023-02-28T05:10:45;7.90;;;4.68;;
76423;SDS011;65257;52.104;4.268;2023-02-28T05:13:14;9.90;;;3.65;;
76423;SDS011;65257;52.104;4.268;2023-02-28T05:15:39;9.98;;;4.07;;
76423;SDS011;65257;52.104;4.268;2023-02-28T05:18:04;13.68;;;4.35;;
76423;SDS011;65257;52.104;4.268;2023-02-28T05:20:30;7.53;;;3.63;;
76423;SDS011;65257;52.104;4.268;2023-02-28T05:22:56;7.70;;;4.15;;
76423;SDS011;65257;52.104;4.268;2023-02-28T05:25:23;14.27;;;4.88;;
76423;SDS011;65257;52.104;4.268;2023-02-28T05:27:48;9.50;;;4.50;;
76423;SDS011;65257;52.104;4.268;2023-02-28T05:30:14;9.80;;;4.30;;
76423;SDS011;65257;52.104;4.268;2023-02-28T05:32:40;7.22;;;3.80;;
76423;SDS011;65257;52.104;4.268;2023-02-28T05:35:10;9.20;;;3.97;;
76423;SDS011;65257;52.104;4.268;2023-02-28T05:37:36;7.20;;;3.53;;
76423;SDS011;65257;52.104;4.268;2023-02-28T05:40:02;7.03;;;4.63;;
76423;SDS011;65257;52.104;4.268;2023-02-28T05:42:31;7.38;;;3.97;;
76423;SDS011;65257;52.104;4.268;2023-02-28T05:44:57;7.43;;;4.38;;
76423;SDS011;65257;52.104;4.268;2023-02-28T05:47:22;9.50;;;4.40;;
76423;SDS011;65257;52.104;4.268;2023-02-28T05:49:47;11.32;;;4.63;;
76423;SDS011;65257;52.104;4.268;2023-02-28T05:52:12;9.18;;;4.63;;
76423;SDS011;65257;52.104;4.268;2023-02-28T05:54:38;14.60;;;4.78;;
76423;SDS011;65257;52.104;4.268;2023-02-28T05:57:03;10.25;;;4.15;;
76423;SDS011;65257;52.104;4.268;2023-02-28T05:59:28;11.93;;;4.82;;
76423;SDS011;65257;52.104;4.268;2023-02-28T06:01:54;15.40;;;4.43;;
76423;SDS011;65257;52.104;4.268;2023-02-28T06:04:20;8.68;;;3.53;;
76423;SDS011;65257;52.104;4.268;2023-02-28T06:06:46;7.22;;;4.05;;
76423;SDS011;65257;52.104;4.268;2023-02-28T06:09:13;8.77;;;4.22;;
76423;SDS011;65257;52.104;4.268;2023-02-28T06:11:39;12.18;;;4.72;;
76423;SDS011;65257;52.104;4.268;2023-02-28T06:14:04;9.55;;;4.72;;
76423;SDS011;65257;52.104;4.268;2023-02-28T06:16:31;7.05;;;3.65;;
76423;SDS011;65257;52.104;4.268;2023-02-28T06:18:58;9.38;;;5.35;;
76423;SDS011;65257;52.104;4.268;2023-02-28T06:21:25;10.50;;;4.88;;
76423;SDS011;65257;52.104;4.268;2023-02-28T06:23:52;8.43;;;4.93;;
76423;SDS011;65257;52.104;4.268;2023-02-28T06:26:17;8.48;;;5.40;;
76423;SDS011;65257;52.104;4.268;2023-02-28T06:28:43;10.32;;;5.25;;
76423;SDS011;65257;52.104;4.268;2023-02-28T06:31:09;10.98;;;5.38;;
76423;SDS011;65257;52.104;4.268;2023-02-28T06:33:37;7.78;;;4.10;;
76423;SDS011;65257;52.104;4.268;2023-02-28T06:36:03;10.15;;;4.28;;
76423;SDS011;65257;52.104;4.268;2023-02-28T06:38:29;11.63;;;6.10;;
76423;SDS011;65257;52.104;4.268;2023-02-28T06:40:56;12.02;;;4.70;;
76423;SDS011;65257;52.104;4.268;2023-02-28T06:43:23;10.73;;;5.45;;
76423;SDS011;65257;52.104;4.268;2023-02-28T06:45:49;9.23;;;5.10;;
76423;SDS011;65257;52.104;4.268;2023-02-28T06:48:15;10.73;;;5.13;;
76423;SDS011;65257;52.104;4.268;2023-02-28T06:50:41;12.30;;;6.35;;
76423;SDS011;65257;52.104;4.268;2023-02-28T06:53:06;8.25;;;4.13;;
76423;SDS011;65257;52.104;4.268;2023-02-28T06:55:32;11.60;;;5.28;;
76423;SDS011;65257;52.104;4.268;2023-02-28T06:57:57;11.30;;;4.85;;
76423;SDS011;65257;52.104;4.268;2023-02-28T07:00:23;10.15;;;4.97;;
76423;SDS011;65257;52.104;4.268;2023-02-28T07:02:49;10.10;;;5.13;;
76423;SDS011;65257;52.104;4.268;2023-02-28T07:05:15;12.23;;;6.22;;
76423;SDS011;65257;52.104;4.268;2023-02-28T07:07:40;13.38;;;6.70;;
76423;SDS011;65257;52.104;4.268;2023-02-28T07:10:09;14.13;;;6.25;;
76423;SDS011;65257;52.104;4.268;2023-02-28T07:12:36;11.95;;;5.85;;
76423;SDS011;65257;52.104;4.268;2023-02-28T07:15:02;16.65;;;7.20;;
76423;SDS011;65257;52.104;4.268;2023-02-28T07:17:28;14.75;;;7.05;;
76423;SDS011;65257;52.104;4.268;2023-02-28T07:19:54;11.48;;;6.30;;
76423;SDS011;65257;52.104;4.268;2023-02-28T07:22:19;14.80;;;6.97;;
76423;SDS011;65257;52.104;4.268;2023-02-28T07:24:44;12.13;;;6.80;;
76423;SDS011;65257;52.104;4.268;2023-02-28T07:27:10;12.00;;;6.57;;
76423;SDS011;65257;52.104;4.268;2023-02-28T07:29:35;14.18;;;6.63;;
76423;SDS011;65257;52.104;4.268;2023-02-28T07:32:01;18.65;;;7.00;;
76423;SDS011;65257;52.104;4.268;2023-02-28T07:34:26;14.82;;;7.03;;
76423;SDS011;65257;52.104;4.268;2023-02-28T07:36:55;15.05;;;6.15;;
76423;SDS011;65257;52.104;4.268;2023-02-28T07:39:21;13.38;;;7.07;;
76423;SDS011;65257;52.104;4.268;2023-02-28T07:41:47;15.88;;;6.88;;
76423;SDS011;65257;52.104;4.268;2023-02-28T07:44:12;12.30;;;7.35;;
76423;SDS011;65257;52.104;4.268;2023-02-28T07:46:39;10.45;;;5.60;;
76423;SDS011;65257;52.104;4.268;2023-02-28T07:49:04;9.88;;;5.55;;
76423;SDS011;65257;52.104;4.268;2023-02-28T07:51:30;9.40;;;5.72;;
76423;SDS011;65257;52.104;4.268;2023-02-28T07:53:56;7.53;;;4.43;;
76423;SDS011;65257;52.104;4.268;2023-02-28T07:56:21;11.50;;;5.90;;
76423;SDS011;65257;52.104;4.268;2023-02-28T07:58:47;6.85;;;3.60;;
76423;SDS011;65257;52.104;4.268;2023-02-28T08:01:12;8.38;;;4.43;;
76423;SDS011;65257;52.104;4.268;2023-02-28T08:03:38;9.93;;;4.60;;
76423;SDS011;65257;52.104;4.268;2023-02-28T08:06:05;5.85;;;3.53;;
76423;SDS011;65257;52.104;4.268;2023-02-28T08:08:32;7.43;;;4.57;;
76423;SDS011;65257;52.104;4.268;2023-02-28T08:10:59;7.13;;;3.55;;
76423;SDS011;65257;52.104;4.268;2023-02-28T08:13:26;6.65;;;2.95;;
76423;SDS011;65257;52.104;4.268;2023-02-28T08:15:52;6.60;;;4.00;;
76423;SDS011;65257;52.104;4.268;2023-02-28T08:18:19;9.05;;;4.68;;
76423;SDS011;65257;52.104;4.268;2023-02-28T08:20:45;8.82;;;4.35;;
76423;SDS011;65257;52.104;4.268;2023-02-28T08:23:10;7.25;;;4.45;;
76423;SDS011;65257;52.104;4.268;2023-02-28T08:25:36;7.70;;;3.75;;
76423;SDS011;65257;52.104;4.268;2023-02-28T08:28:01;6.18;;;3.33;;
76423;SDS011;65257;52.104;4.268;2023-02-28T08:30:26;9.27;;;4.43;;
76423;SDS011;65257;52.104;4.268;2023-02-28T08:32:52;5.90;;;4.22;;
76423;SDS011;65257;52.104;4.268;2023-02-28T08:35:17;8.38;;;3.95;;
76423;SDS011;65257;52.104;4.268;2023-02-28T08:37:42;6.25;;;3.80;;
76423;SDS011;65257;52.104;4.268;2023-02-28T08:40:08;7.00;;;4.03;;
76423;SDS011;65257;52.104;4.268;2023-02-28T08:42:34;6.07;;;3.92;;
76423;SDS011;65257;52.104;4.268;2023-02-28T08:45:00;7.10;;;4.25;;
76423;SDS011;65257;52.104;4.268;2023-02-28T08:47:25;7.85;;;3.78;;
76423;SDS011;65257;52.104;4.268;2023-02-28T08:49:51;5.53;;;3.97;;
76423;SDS011;65257;52.104;4.268;2023-02-28T08:52:16;7.68;;;3.83;;
76423;SDS011;65257;52.104;4.268;2023-02-28T08:54:42;7.18;;;4.47;;
76423;SDS011;65257;52.104;4.268;2023-02-28T08:57:07;8.57;;;4.88;;
76423;SDS011;65257;52.104;4.268;2023-02-28T08:59:33;9.52;;;4.20;;
76423;SDS011;65257;52.104;4.268;2023-02-28T09:01:58;8.82;;;4.00;;
76423;SDS011;65257;52.104;4.268;2023-02-28T09:04:23;6.00;;;3.70;;
76423;SDS011;65257;52.104;4.268;2023-02-28T09:06:49;6.82;;;3.58;;
76423;SDS011;65257;52.104;4.268;2023-02-28T09:09:15;8.45;;;4.20;;
76423;SDS011;65257;52.104;4.268;2023-02-28T09:11:41;9.13;;;4.70;;
76423;SDS011;65257;52.104;4.268;2023-02-28T09:14:06;7.80;;;5.22;;
76423;SDS011;65257;52.104;4.268;2023-02-28T09:16:32;6.25;;;3.72;;
76423;SDS011;65257;52.104;4.268;2023-02-28T09:19:00;10.55;;;5.18;;
76423;SDS011;65257;52.104;4.268;2023-02-28T09:21:25;9.88;;;4.57;;
76423;SDS011;65257;52.104;4.268;2023-02-28T09:23:51;9.05;;;4.93;;
76423;SDS011;65257;52.104;4.268;2023-02-28T09:26:18;8.10;;;4.35;;
76423;SDS011;65257;52.104;4.268;2023-02-28T09:28:49;7.00;;;4.50;;
76423;SDS011;65257;52.104;4.268;2023-02-28T09:31:20;7.35;;;4.55;;
76423;SDS011;65257;52.104;4.268;2023-02-28T09:33:48;6.10;;;3.78;;
76423;SDS011;65257;52.104;4.268;2023-02-28T09:36:17;8.18;;;3.80;;
76423;SDS011;65257;52.104;4.268;2023-02-28T09:38:43;5.82;;;3.50;;
76423;SDS011;65257;52.104;4.268;2023-02-28T09:41:31;6.15;;;3.75;;
76423;SDS011;65257;52.104;4.268;2023-02-28T09:44:02;6.63;;;3.63;;
76423;SDS011;65257;52.104;4.268;2023-02-28T09:46:33;6.40;;;3.03;;
76423;SDS011;65257;52.104;4.268;2023-02-28T09:49:12;6.97;;;2.80;;
76423;SDS011;65257;52.104;4.268;2023-02-28T09:54:37;6.82;;;3.78;;
76423;SDS011;65257;52.104;4.268;2023-02-28T09:57:21;6.53;;;3.08;;
76423;SDS011;65257;52.104;4.268;2023-02-28T10:02:45;5.78;;;2.85;;
76423;SDS011;65257;52.104;4.268;2023-02-28T10:05:24;5.30;;;3.15;;
76423;SDS011;65257;52.104;4.268;2023-02-28T10:11:00;5.07;;;2.50;;
76423;SDS011;65257;52.104;4.268;2023-02-28T10:14:04;4.07;;;2.30;;
76423;SDS011;65257;52.104;4.268;2023-02-28T10:16:47;4.20;;;2.28;;
76423;SDS011;65257;52.104;4.268;2023-02-28T10:21:53;4.43;;;1.80;;
76423;SDS011;65257;52.104;4.268;2023-02-28T10:24:26;5.18;;;3.85;;
76423;SDS011;65257;52.104;4.268;2023-02-28T10:27:12;4.68;;;2.13;;
76423;SDS011;65257;52.104;4.268;2023-02-28T10:29:41;4.35;;;2.22;;
76423;SDS011;65257;52.104;4.268;2023-02-28T10:32:09;4.80;;;2.10;;
76423;SDS011;65257;52.104;4.268;2023-02-28T10:34:39;3.67;;;2.05;;
76423;SDS011;65257;52.104;4.268;2023-02-28T10:37:04;3.85;;;2.22;;
76423;SDS011;65257;52.104;4.268;2023-02-28T10:39:43;5.00;;;2.72;;
76423;SDS011;65257;52.104;4.268;2023-02-28T10:45:10;5.05;;;2.30;;
76423;SDS011;65257;52.104;4.268;2023-02-28T10:47:48;3.97;;;2.10;;
76423;SDS011;65257;52.104;4.268;2023-02-28T11:03:47;3.47;;;1.70;;
76423;SDS011;65257;52.104;4.268;2023-02-28T11:06:20;7.47;;;2.97;;
76423;SDS011;65257;52.104;4.268;2023-02-28T11:08:52;2.55;;;1.67;;
76423;SDS011;65257;52.104;4.268;2023-02-28T11:13:47;2.80;;;1.63;;
76423;SDS011;65257;52.104;4.268;2023-02-28T11:16:17;3.15;;;1.67;;
76423;SDS011;65257;52.104;4.268;2023-02-28T11:18:46;3.20;;;2.03;;
76423;SDS011;65257;52.104;4.268;2023-02-28T11:26:51;2.42;;;1.23;;
76423;SDS011;65257;52.104;4.268;2023-02-28T11:29:21;4.97;;;2.25;;
76423;SDS011;65257;52.104;4.268;2023-02-28T11:34:34;3.20;;;1.90;;
76423;SDS011;65257;52.104;4.268;2023-02-28T11:37:01;3.53;;;1.75;;
76423;SDS011;65257;52.104;4.268;2023-02-28T11:39:30;4.65;;;1.80;;
76423;SDS011;65257;52.104;4.268;2023-02-28T11:53:40;3.63;;;1.75;;
76423;SDS011;65257;52.104;4.268;2023-02-28T11:55:57;3.30;;;1.83;;
76423;SDS011;65257;52.104;4.268;2023-02-28T12:01:32;3.55;;;1.88;;
76423;SDS011;65257;52.104;4.268;2023-02-28T12:06:43;4.30;;;2.15;;
76423;SDS011;65257;52.104;4.268;2023-02-28T12:09:39;4.50;;;1.80;;
76423;SDS011;65257;52.104;4.268;2023-02-28T12:14:53;3.50;;;1.98;;
76423;SDS011;65257;52.104;4.268;2023-02-28T12:25:50;6.80;;;2.63;;
76423;SDS011;65257;52.104;4.268;2023-02-28T12:28:28;3.55;;;2.45;;
76423;SDS011;65257;52.104;4.268;2023-02-28T12:33:51;2.97;;;1.80;;
76423;SDS011;65257;52.104;4.268;2023-02-28T12:36:22;3.63;;;2.47;;
76423;SDS011;65257;52.104;4.268;2023-02-28T12:38:51;5.15;;;2.25;;
76423;SDS011;65257;52.104;4.268;2023-02-28T12:44:23;4.57;;;2.45;;
76423;SDS011;65257;52.104;4.268;2023-02-28T12:47:12;4.57;;;2.58;;
76423;SDS011;65257;52.104;4.268;2023-02-28T12:49:49;5.55;;;2.50;;
76423;SDS011;65257;52.104;4.268;2023-02-28T12:52:21;3.92;;;2.13;;
76423;SDS011;65257;52.104;4.268;2023-02-28T12:55:32;4.03;;;2.42;;
76423;SDS011;65257;52.104;4.268;2023-02-28T13:08:47;3.40;;;2.10;;
76423;SDS011;65257;52.104;4.268;2023-02-28T13:11:32;2.95;;;2.15;;
76423;SDS011;65257;52.104;4.268;2023-02-28T13:13:59;3.63;;;2.03;;
76423;SDS011;65257;52.104;4.268;2023-02-28T13:16:27;3.45;;;2.08;;
76423;SDS011;65257;52.104;4.268;2023-02-28T13:18:56;3.92;;;2.30;;
76423;SDS011;65257;52.104;4.268;2023-02-28T13:21:41;4.43;;;2.17;;
76423;SDS011;65257;52.104;4.268;2023-02-28T13:24:08;6.10;;;2.35;;
76423;SDS011;65257;52.104;4.268;2023-02-28T13:34:28;3.05;;;2.25;;
76423;SDS011;65257;52.104;4.268;2023-02-28T13:39:48;3.13;;;1.83;;
76423;SDS011;65257;52.104;4.268;2023-02-28T13:47:51;5.05;;;2.20;;
76423;SDS011;65257;52.104;4.268;2023-02-28T13:58:25;3.10;;;2.22;;
76423;SDS011;65257;52.104;4.268;2023-02-28T14:03:37;6.00;;;2.45;;
76423;SDS011;65257;52.104;4.268;2023-02-28T14:08:54;3.92;;;2.70;;
76423;SDS011;65257;52.104;4.268;2023-02-28T14:11:24;6.78;;;2.83;;
76423;SDS011;65257;52.104;4.268;2023-02-28T14:14:02;4.75;;;2.38;;
76423;SDS011;65257;52.104;4.268;2023-02-28T14:16:35;5.20;;;2.67;;
76423;SDS011;65257;52.104;4.268;2023-02-28T14:21:36;4.85;;;2.38;;
76423;SDS011;65257;52.104;4.268;2023-02-28T14:32:22;5.45;;;2.25;;
76423;SDS011;65257;52.104;4.268;2023-02-28T14:35:02;4.95;;;2.70;;
76423;SDS011;65257;52.104;4.268;2023-02-28T14:37:39;4.50;;;2.63;;
76423;SDS011;65257;52.104;4.268;2023-02-28T14:40:17;3.70;;;2.63;;
76423;SDS011;65257;52.104;4.268;2023-02-28T14:42:54;4.97;;;2.72;;
76423;SDS011;65257;52.104;4.268;2023-02-28T14:45:22;4.10;;;2.55;;
76423;SDS011;65257;52.104;4.268;2023-02-28T14:47:48;5.68;;;3.25;;
76423;SDS011;65257;52.104;4.268;2023-02-28T14:50:20;4.10;;;2.72;;
76423;SDS011;65257;52.104;4.268;2023-02-28T14:55:14;5.60;;;2.83;;
76423;SDS011;65257;52.104;4.268;2023-02-28T14:58:02;4.63;;;2.65;;
76423;SDS011;65257;52.104;4.268;2023-02-28T15:00:48;3.92;;;2.70;;
76423;SDS011;65257;52.104;4.268;2023-02-28T15:03:24;6.43;;;2.95;;
76423;SDS011;65257;52.104;4.268;2023-02-28T15:06:00;4.78;;;2.65;;
76423;SDS011;65257;52.104;4.268;2023-02-28T15:08:28;9.25;;;2.92;;
76423;SDS011;65257;52.104;4.268;2023-02-28T15:10:58;4.20;;;2.65;;
76423;SDS011;65257;52.104;4.268;2023-02-28T15:13:29;4.95;;;2.78;;
76423;SDS011;65257;52.104;4.268;2023-02-28T15:16:03;5.65;;;2.60;;
76423;SDS011;65257;52.104;4.268;2023-02-28T15:18:54;3.78;;;2.30;;
76423;SDS011;65257;52.104;4.268;2023-02-28T15:21:31;4.65;;;2.65;;
76423;SDS011;65257;52.104;4.268;2023-02-28T15:24:04;4.53;;;2.72;;
76423;SDS011;65257;52.104;4.268;2023-02-28T15:26:36;3.70;;;2.28;;
76423;SDS011;65257;52.104;4.268;2023-02-28T15:29:10;4.97;;;2.30;;
76423;SDS011;65257;52.104;4.268;2023-02-28T15:31:45;4.25;;;2.63;;
76423;SDS011;65257;52.104;4.268;2023-02-28T15:34:18;6.03;;;2.33;;
76423;SDS011;65257;52.104;4.268;2023-02-28T15:36:46;5.32;;;2.75;;
76423;SDS011;65257;52.104;4.268;2023-02-28T15:39:20;4.72;;;2.60;;
76423;SDS011;65257;52.104;4.268;2023-02-28T15:41:51;5.85;;;3.20;;
76423;SDS011;65257;52.104;4.268;2023-02-28T15:44:34;6.30;;;3.10;;
76423;SDS011;65257;52.104;4.268;2023-02-28T15:47:02;6.45;;;3.17;;
76423;SDS011;65257;52.104;4.268;2023-02-28T15:49:47;5.10;;;3.00;;
76423;SDS011;65257;52.104;4.268;2023-02-28T15:52:21;6.45;;;2.55;;
76423;SDS011;65257;52.104;4.268;2023-02-28T15:54:51;7.93;;;3.47;;
76423;SDS011;65257;52.104;4.268;2023-02-28T15:57:21;6.15;;;2.75;;
76423;SDS011;65257;52.104;4.268;2023-02-28T16:00:00;9.00;;;3.17;;
76423;SDS011;65257;52.104;4.268;2023-02-28T16:02:30;9.88;;;3.75;;
76423;SDS011;65257;52.104;4.268;2023-02-28T16:05:12;7.68;;;3.58;;
76423;SDS011;65257;52.104;4.268;2023-02-28T16:07:46;8.52;;;3.88;;
76423;SDS011;65257;52.104;4.268;2023-02-28T16:10:13;6.15;;;3.60;;
76423;SDS011;65257;52.104;4.268;2023-02-28T16:12:39;9.43;;;3.67;;
76423;SDS011;65257;52.104;4.268;2023-02-28T16:15:07;9.85;;;4.35;;
76423;SDS011;65257;52.104;4.268;2023-02-28T16:17:53;9.05;;;3.47;;
76423;SDS011;65257;52.104;4.268;2023-02-28T16:20:24;7.35;;;4.15;;
76423;SDS011;65257;52.104;4.268;2023-02-28T16:22:52;7.03;;;4.78;;
76423;SDS011;65257;52.104;4.268;2023-02-28T16:25:19;5.70;;;3.15;;
76423;SDS011;65257;52.104;4.268;2023-02-28T16:27:48;8.10;;;3.72;;
76423;SDS011;65257;52.104;4.268;2023-02-28T16:30:19;7.68;;;3.75;;
76423;SDS011;65257;52.104;4.268;2023-02-28T16:32:47;6.10;;;3.40;;
76423;SDS011;65257;52.104;4.268;2023-02-28T16:35:14;6.80;;;3.13;;
76423;SDS011;65257;52.104;4.268;2023-02-28T16:37:40;7.47;;;4.05;;
76423;SDS011;65257;52.104;4.268;2023-02-28T16:40:06;6.63;;;3.03;;
76423;SDS011;65257;52.104;4.268;2023-02-28T16:42:38;5.07;;;2.75;;
76423;SDS011;65257;52.104;4.268;2023-02-28T16:45:04;4.53;;;2.33;;
76423;SDS011;65257;52.104;4.268;2023-02-28T16:47:29;5.15;;;2.53;;
76423;SDS011;65257;52.104;4.268;2023-02-28T16:49:56;4.05;;;2.40;;
76423;SDS011;65257;52.104;4.268;2023-02-28T16:52:22;5.72;;;2.53;;
76423;SDS011;65257;52.104;4.268;2023-02-28T16:54:47;5.07;;;3.08;;
76423;SDS011;65257;52.104;4.268;2023-02-28T16:57:17;5.25;;;2.88;;
76423;SDS011;65257;52.104;4.268;2023-02-28T16:59:46;4.35;;;2.65;;
76423;SDS011;65257;52.104;4.268;2023-02-28T17:02:12;4.78;;;2.42;;
76423;SDS011;65257;52.104;4.268;2023-02-28T17:04:39;4.57;;;2.50;;
76423;SDS011;65257;52.104;4.268;2023-02-28T17:07:04;4.50;;;2.72;;
76423;SDS011;65257;52.104;4.268;2023-02-28T17:09:29;5.65;;;2.35;;
76423;SDS011;65257;52.104;4.268;2023-02-28T17:11:55;6.80;;;3.13;;
76423;SDS011;65257;52.104;4.268;2023-02-28T17:14:21;6.10;;;2.90;;
76423;SDS011;65257;52.104;4.268;2023-02-28T17:16:48;5.32;;;2.92;;
76423;SDS011;65257;52.104;4.268;2023-02-28T17:19:14;5.00;;;2.88;;
76423;SDS011;65257;52.104;4.268;2023-02-28T17:21:42;6.88;;;3.05;;
76423;SDS011;65257;52.104;4.268;2023-02-28T17:24:08;5.75;;;2.90;;
76423;SDS011;65257;52.104;4.268;2023-02-28T17:26:37;7.07;;;3.28;;
76423;SDS011;65257;52.104;4.268;2023-02-28T17:29:15;5.13;;;2.83;;
76423;SDS011;65257;52.104;4.268;2023-02-28T17:31:44;4.97;;;2.88;;
76423;SDS011;65257;52.104;4.268;2023-02-28T17:34:10;5.57;;;3.30;;
76423;SDS011;65257;52.104;4.268;2023-02-28T17:36:36;4.00;;;2.70;;
76423;SDS011;65257;52.104;4.268;2023-02-28T17:39:02;5.43;;;3.30;;
76423;SDS011;65257;52.104;4.268;2023-02-28T17:41:28;6.07;;;3.00;;
76423;SDS011;65257;52.104;4.268;2023-02-28T17:43:55;4.85;;;2.92;;